Time;durP1;ratioP1;P1;durP2;ratioP2;P2;SDS_P1;SDS_P2;PMS_P1;PMS_P2;Temp;Humidity;BMP_temperature;BMP_pressure;BME280_temperature;BME280_humidity;BME280_pressure;Samples;Min_cycle;Max_cycle;Signal;HPM_P1;HPM_P2
2023/03/09 00:01:21;;;;;;;1999.90;999.90;;;5.50;99.90;;;;;;5014323;28;20428;-68
2023/03/09 00:03:47;;;;;;;1999.90;999.90;;;5.30;99.90;;;;;;5014142;28;20388;-68
2023/03/09 00:06:13;;;;;;;1999.90;999.90;;;5.20;99.90;;;;;;5014359;28;20504;-68
2023/03/09 00:08:39;;;;;;;1999.90;999.90;;;5.20;99.90;;;;;;5014577;28;20396;-68
2023/03/09 00:11:05;;;;;;;1999.90;999.90;;;5.10;99.90;;;;;;5014509;28;20535;-68
2023/03/09 00:13:31;;;;;;;1999.90;999.90;;;5.00;99.90;;;;;;5014474;28;20169;-68
2023/03/09 00:16:06;;;;;;;1999.90;999.90;;;5.00;99.90;;;;;;5014520;28;20470;-68
2023/03/09 00:18:31;;;;;;;1999.90;999.90;;;5.00;99.90;;;;;;5014603;28;20553;-68
2023/03/09 00:20:57;;;;;;;1999.90;999.90;;;5.00;99.90;;;;;;5014156;28;20493;-68
2023/03/09 00:23:22;;;;;;;1999.90;999.90;;;5.00;99.90;;;;;;5013982;28;20204;-68
2023/03/09 00:25:48;;;;;;;1999.90;999.90;;;5.00;99.90;;;;;;5013985;28;20583;-68
2023/03/09 00:28:13;;;;;;;1999.90;999.90;;;5.10;99.90;;;;;;5013899;28;20177;-68
2023/03/09 00:30:39;;;;;;;1999.90;999.90;;;5.10;99.90;;;;;;5013720;28;20839;-69
2023/03/09 00:33:05;;;;;;;1999.90;999.90;;;5.20;99.90;;;;;;5013471;28;20173;-68
2023/03/09 00:35:30;;;;;;;1999.90;999.90;;;5.20;99.90;;;;;;5013574;28;20173;-68
2023/03/09 00:37:56;;;;;;;1999.90;999.90;;;5.10;99.90;;;;;;5013520;28;20204;-68
2023/03/09 00:40:21;;;;;;;1999.90;999.90;;;5.00;99.90;;;;;;5013530;28;20185;-68
2023/03/09 00:42:47;;;;;;;1999.90;999.90;;;5.00;99.90;;;;;;5013341;28;20651;-68
2023/03/09 00:45:13;;;;;;;1999.90;999.90;;;5.00;99.90;;;;;;5013454;28;20287;-68
2023/03/09 00:47:40;;;;;;;1999.90;999.90;;;4.90;99.90;;;;;;5013508;28;20259;-69
2023/03/09 00:50:07;;;;;;;1999.90;999.90;;;4.90;99.90;;;;;;5013210;28;20412;-68
2023/03/09 00:52:33;;;;;;;1999.90;999.90;;;4.80;99.90;;;;;;5013033;28;20412;-68
2023/03/09 00:54:59;;;;;;;1999.90;999.90;;;4.80;99.90;;;;;;5028657;28;20426;-68
2023/03/09 00:57:25;;;;;;;1999.90;999.90;;;4.90;99.90;;;;;;5032856;28;20287;-68
2023/03/09 00:59:54;;;;;;;1999.90;999.90;;;4.90;99.90;;;;;;5032905;28;20435;-68
2023/03/09 01:02:20;;;;;;;1999.90;999.90;;;4.90;99.90;;;;;;5032851;28;20413;-68
2023/03/09 01:04:47;;;;;;;1999.90;999.90;;;4.90;99.90;;;;;;5032831;28;20399;-68
2023/03/09 01:07:13;;;;;;;1999.90;999.90;;;4.90;99.90;;;;;;5032650;28;20411;-68
2023/03/09 01:09:38;;;;;;;1999.90;999.90;;;4.80;99.90;;;;;;5032876;28;20406;-69
2023/03/09 01:12:05;;;;;;;1999.90;999.90;;;5.20;99.90;;;;;;5032429;28;20963;-68
2023/03/09 01:14:31;;;;;;;1999.90;999.90;;;4.60;99.90;;;;;;5032653;28;20176;-68
2023/03/09 01:16:57;;;;;;;1999.90;999.90;;;4.50;99.90;;;;;;5032500;28;20821;-68
2023/03/09 01:19:23;;;;;;;1999.90;999.90;;;4.50;99.90;;;;;;5032566;28;20406;-68
2023/03/09 01:21:48;;;;;;;1999.90;999.90;;;4.50;99.90;;;;;;5032394;28;20184;-68
2023/03/09 01:24:14;;;;;;;1999.90;999.90;;;4.50;99.90;;;;;;5032662;28;20391;-68
2023/03/09 01:26:39;;;;;;;1999.90;999.90;;;4.40;99.90;;;;;;5032396;28;20177;-68
2023/03/09 01:29:05;;;;;;;1999.90;999.90;;;4.40;99.90;;;;;;5032441;28;20198;-68
2023/03/09 01:31:31;;;;;;;1999.90;999.90;;;4.40;99.90;;;;;;5032262;28;20213;-68
2023/03/09 01:33:56;;;;;;;1999.90;999.90;;;4.40;99.90;;;;;;5032425;28;20168;-68
2023/03/09 01:36:22;;;;;;;1999.90;999.90;;;4.30;99.90;;;;;;5032272;28;20172;-68
2023/03/09 01:38:48;;;;;;;1999.90;999.90;;;4.40;99.90;;;;;;5033133;28;20208;-67
2023/03/09 01:41:15;;;;;;;1999.90;999.90;;;4.40;99.90;;;;;;5032325;28;20192;-68
2023/03/09 01:43:43;;;;;;;1999.90;999.90;;;4.40;99.90;;;;;;5032092;28;20406;-68
2023/03/09 01:46:24;;;;;;;1999.90;999.90;;;4.40;99.90;;;;;;5032227;28;20403;-68
2023/03/09 01:48:59;;;;;;;1999.90;999.90;;;4.30;99.90;;;;;;5032248;28;20418;-67
2023/03/09 01:51:31;;;;;;;1999.90;999.90;;;4.30;99.90;;;;;;5031913;28;20794;-69
2023/03/09 01:53:59;;;;;;;1999.90;999.90;;;4.20;99.90;;;;;;5032102;28;20395;-68
2023/03/09 01:56:25;;;;;;;1999.90;999.90;;;4.20;99.90;;;;;;5031918;28;20403;-69
2023/03/09 01:58:53;;;;;;;1999.90;999.90;;;4.20;99.90;;;;;;5032002;28;20222;-68
2023/03/09 02:01:19;;;;;;;1999.90;999.90;;;4.10;99.90;;;;;;5032067;28;20465;-68
2023/03/09 02:03:49;;;;;;;1999.90;999.90;;;4.00;99.90;;;;;;5031903;28;20176;-68
2023/03/09 02:06:18;;;;;;;1999.90;999.90;;;4.00;99.90;;;;;;5031869;28;20407;-68
2023/03/09 02:09:20;;;;;;;1999.90;999.90;;;3.90;99.90;;;;;;5032092;28;20168;-67
2023/03/09 02:11:46;;;;;;;1999.90;999.90;;;3.80;99.90;;;;;;5031583;28;20446;-67
2023/03/09 02:14:13;;;;;;;1999.90;999.90;;;3.60;99.90;;;;;;5032095;28;20186;-67
2023/03/09 02:16:39;;;;;;;1999.90;999.90;;;3.40;99.90;;;;;;5031955;28;20811;-67
2023/03/09 02:19:10;;;;;;;1999.90;999.90;;;3.20;99.90;;;;;;5032262;28;20172;-67
2023/03/09 02:21:48;;;;;;;1999.90;999.90;;;3.10;99.90;;;;;;5035958;28;20245;-67
2023/03/09 02:24:31;;;;;;;1999.90;999.90;;;3.00;99.90;;;;;;5036252;28;20666;-67
2023/03/09 02:27:01;;;;;;;1999.90;999.90;;;3.00;99.90;;;;;;5035943;28;20175;-67
2023/03/09 02:29:28;;;;;;;1999.90;999.90;;;2.90;99.90;;;;;;5035995;28;20172;-67
2023/03/09 02:31:54;;;;;;;1999.90;999.90;;;3.00;99.90;;;;;;5036101;28;20184;-67
2023/03/09 02:34:20;;;;;;;1999.90;999.90;;;3.10;99.90;;;;;;5036399;28;20545;-68
2023/03/09 02:36:45;;;;;;;1999.90;999.90;;;3.20;99.90;;;;;;5035872;28;20200;-68
2023/03/09 02:39:30;;;;;;;1999.90;999.90;;;3.40;99.90;;;;;;5035892;28;20251;-68
2023/03/09 02:41:58;;;;;;;1999.90;999.90;;;3.40;99.90;;;;;;5035769;28;20180;-67
2023/03/09 02:44:25;;;;;;;1999.90;999.90;;;3.30;99.90;;;;;;5036093;28;20461;-67
2023/03/09 02:46:51;;;;;;;1999.90;999.90;;;3.20;99.90;;;;;;5035620;28;20218;-68
2023/03/09 02:49:17;;;;;;;1999.90;999.90;;;3.00;99.90;;;;;;5035605;28;20172;-67
2023/03/09 02:51:42;;;;;;;1999.90;999.90;;;3.00;99.90;;;;;;5035394;28;20241;-67
2023/03/09 02:54:08;;;;;;;1999.90;999.90;;;2.90;99.90;;;;;;5035392;28;20858;-67
2023/03/09 02:56:34;;;;;;;1999.90;999.90;;;2.90;99.90;;;;;;5035101;28;20206;-67
2023/03/09 02:59:02;;;;;;;1999.90;999.90;;;2.90;99.90;;;;;;5035472;28;20630;-67
2023/03/09 03:01:28;;;;;;;1999.90;999.90;;;2.90;99.90;;;;;;5035050;28;20192;-66
2023/03/09 03:03:54;;;;;;;1999.90;999.90;;;3.00;99.90;;;;;;5035109;28;20176;-67
2023/03/09 03:06:19;;;;;;;1999.90;999.90;;;2.90;99.90;;;;;;5035058;28;20176;-67
2023/03/09 03:08:45;;;;;;;1999.90;999.90;;;2.80;99.90;;;;;;5035129;28;20247;-67
2023/03/09 03:11:10;;;;;;;1999.90;999.90;;;2.90;99.90;;;;;;5034764;28;20208;-68
2023/03/09 03:13:36;;;;;;;1999.90;999.90;;;2.80;99.90;;;;;;5034863;28;20168;-68
2023/03/09 03:16:03;;;;;;;1999.90;999.90;;;2.80;99.90;;;;;;5034880;28;20172;-67
2023/03/09 03:18:29;;;;;;;1999.90;999.90;;;2.80;99.90;;;;;;5034946;28;20223;-67
2023/03/09 03:20:54;;;;;;;1999.90;999.90;;;2.80;99.90;;;;;;5034786;28;20635;-68
2023/03/09 03:23:21;;;;;;;1999.90;999.90;;;2.80;99.90;;;;;;5034565;28;20229;-67
2023/03/09 03:25:47;;;;;;;1999.90;999.90;;;2.80;99.90;;;;;;5034716;28;20226;-67
2023/03/09 03:28:13;;;;;;;1999.90;999.90;;;2.80;99.90;;;;;;5034816;28;20180;-68
2023/03/09 03:30:38;;;;;;;1999.90;999.90;;;2.80;99.90;;;;;;5033570;28;20188;-67
2023/03/09 03:33:04;;;;;;;1999.90;999.90;;;2.80;99.90;;;;;;5034457;28;20211;-67
2023/03/09 03:35:29;;;;;;;1999.90;999.90;;;2.80;99.90;;;;;;5034655;28;20168;-67
2023/03/09 03:37:55;;;;;;;1999.90;999.90;;;2.80;99.90;;;;;;5034414;28;20192;-67
2023/03/09 03:40:21;;;;;;;1999.90;999.90;;;2.80;99.90;;;;;;5034350;28;20184;-66
2023/03/09 03:42:46;;;;;;;1999.90;999.90;;;2.80;99.90;;;;;;5034239;28;20185;-67
2023/03/09 03:45:12;;;;;;;1999.90;999.90;;;2.80;99.90;;;;;;5034416;28;20230;-68
2023/03/09 03:47:38;;;;;;;1999.90;999.90;;;2.80;99.90;;;;;;5034217;28;20226;-67
2023/03/09 03:50:04;;;;;;;1999.90;999.90;;;2.70;99.90;;;;;;5034317;28;20407;-68
2023/03/09 03:52:30;;;;;;;1999.90;999.90;;;2.90;99.90;;;;;;5034071;28;20176;-68
2023/03/09 03:54:56;;;;;;;1999.90;999.90;;;2.90;99.90;;;;;;5034166;28;20179;-67
2023/03/09 03:57:22;;;;;;;1999.90;999.90;;;2.80;99.90;;;;;;5034008;28;20188;-67
2023/03/09 03:59:49;;;;;;;1999.90;999.90;;;2.80;99.90;;;;;;5034294;28;20176;-67
2023/03/09 04:02:15;;;;;;;1999.90;999.90;;;2.80;99.90;;;;;;5033896;28;20200;-67
2023/03/09 04:04:40;;;;;;;1999.90;999.90;;;2.70;99.90;;;;;;5034092;28;20161;-67
2023/03/09 04:07:06;;;;;;;1999.90;999.90;;;2.70;99.90;;;;;;5033905;28;20180;-68
2023/03/09 04:09:32;;;;;;;1999.90;999.90;;;2.80;99.90;;;;;;5033910;28;20179;-68
2023/03/09 04:11:58;;;;;;;1999.90;999.90;;;2.80;99.90;;;;;;5033619;28;20673;-67
2023/03/09 04:14:24;;;;;;;1999.90;999.90;;;2.80;99.90;;;;;;5033869;28;20173;-68
2023/03/09 04:16:49;;;;;;;1999.90;999.90;;;2.70;99.90;;;;;;5033639;28;20200;-68
2023/03/09 04:19:15;;;;;;;1999.90;999.90;;;2.70;99.90;;;;;;5033756;28;20168;-67
2023/03/09 04:21:40;;;;;;;1999.90;999.90;;;2.70;99.90;;;;;;5033450;28;20184;-68
2023/03/09 04:24:06;;;;;;;1999.90;999.90;;;2.70;99.90;;;;;;5033622;28;20200;-68
2023/03/09 04:26:32;;;;;;;1999.90;999.90;;;2.80;99.90;;;;;;5033519;28;20549;-68
2023/03/09 04:28:57;;;;;;;1999.90;999.90;;;2.90;99.90;;;;;;5033863;28;20482;-67
2023/03/09 04:31:23;;;;;;;1999.90;999.90;;;3.00;99.90;;;;;;5033433;28;20195;-68
2023/03/09 04:33:48;;;;;;;1999.90;999.90;;;3.10;99.90;;;;;;5033395;28;20666;-67
2023/03/09 04:36:14;;;;;;;1999.90;999.90;;;3.10;99.90;;;;;;5033427;28;20171;-67
2023/03/09 04:38:40;;;;;;;1999.90;999.90;;;3.20;99.90;;;;;;5033319;28;20286;-67
2023/03/09 04:41:05;;;;;;;1999.90;999.90;;;3.20;99.90;;;;;;5033242;28;20188;-67
2023/03/09 04:43:31;;;;;;;1999.90;999.90;;;3.20;99.90;;;;;;5032690;28;20180;-67
2023/03/09 04:45:57;;;;;;;1999.90;999.90;;;3.20;99.90;;;;;;5033140;28;20214;-67
2023/03/09 04:48:23;;;;;;;1999.90;999.90;;;3.20;99.90;;;;;;5033225;28;20179;-67
2023/03/09 04:50:48;;;;;;;1999.90;999.90;;;3.10;99.90;;;;;;5033181;28;20522;-67
2023/03/09 04:53:14;;;;;;;1999.90;999.90;;;3.00;99.90;;;;;;5033061;28;20183;-67
2023/03/09 04:55:40;;;;;;;1999.90;999.90;;;3.00;99.90;;;;;;5033260;28;20660;-67
2023/03/09 04:58:05;;;;;;;1999.90;999.90;;;3.00;99.90;;;;;;5033106;28;20638;-67
2023/03/09 05:00:32;;;;;;;1999.90;999.90;;;3.20;99.90;;;;;;5032989;28;20184;-68
2023/03/09 05:02:58;;;;;;;1999.90;999.90;;;3.20;99.90;;;;;;5032700;28;20234;-67
2023/03/09 05:05:23;;;;;;;1999.90;999.90;;;3.30;99.90;;;;;;5032949;28;20184;-68
2023/03/09 05:07:49;;;;;;;1999.90;999.90;;;3.40;99.90;;;;;;5032757;28;20407;-68
2023/03/09 05:10:15;;;;;;;1999.90;999.90;;;3.50;99.90;;;;;;5032584;28;20235;-67
2023/03/09 05:12:40;;;;;;;1999.90;999.90;;;3.60;99.90;;;;;;5032839;28;20650;-67
2023/03/09 05:15:07;;;;;;;1999.90;999.90;;;3.60;99.90;;;;;;5033070;28;20255;-68
2023/03/09 05:17:32;;;;;;;1999.90;999.90;;;3.60;99.90;;;;;;5032956;28;20219;-67
2023/03/09 05:19:58;;;;;;;1999.90;999.90;;;3.60;99.90;;;;;;5033110;28;20415;-67
2023/03/09 05:22:24;;;;;;;1999.90;999.90;;;3.50;99.90;;;;;;5032864;28;20403;-68
2023/03/09 05:24:49;;;;;;;1999.90;999.90;;;3.40;99.90;;;;;;5033009;28;20164;-68
2023/03/09 05:27:15;;;;;;;1999.90;999.90;;;3.40;99.90;;;;;;5032998;28;20183;-68
2023/03/09 05:29:41;;;;;;;1999.90;999.90;;;3.40;99.90;;;;;;5033163;28;20686;-67
2023/03/09 05:32:07;;;;;;;1999.90;999.90;;;3.40;99.90;;;;;;5032522;28;20672;-67
2023/03/09 05:34:33;;;;;;;1999.90;999.90;;;3.40;99.90;;;;;;5032894;28;20422;-68
2023/03/09 05:36:59;;;;;;;1999.90;999.90;;;3.40;99.90;;;;;;5032518;28;20824;-67
2023/03/09 05:39:24;;;;;;;1999.90;999.90;;;3.30;99.90;;;;;;5033182;28;20412;-68
2023/03/09 05:41:50;;;;;;;1999.90;999.90;;;3.30;99.90;;;;;;5032616;28;20431;-68
2023/03/09 05:44:15;;;;;;;1999.90;999.90;;;3.30;99.90;;;;;;5032700;28;20234;-68
2023/03/09 05:46:41;;;;;;;1999.90;999.90;;;3.30;99.90;;;;;;5032720;28;20164;-67
2023/03/09 05:49:07;;;;;;;1999.90;999.90;;;3.30;99.90;;;;;;5032484;28;20172;-67
2023/03/09 05:51:32;;;;;;;1999.90;999.90;;;3.40;99.90;;;;;;5032111;28;20211;-68
2023/03/09 05:53:58;;;;;;;1999.90;999.90;;;3.50;99.90;;;;;;5031625;28;20242;-68
2023/03/09 05:56:23;;;;;;;1999.90;999.90;;;3.60;99.90;;;;;;5032169;28;20176;-67
2023/03/09 05:58:50;;;;;;;1999.90;999.90;;;3.60;99.90;;;;;;5032341;28;20184;-68
2023/03/09 06:01:25;;;;;;;1999.90;999.90;;;3.70;99.90;;;;;;5032204;28;20330;-68
2023/03/09 06:03:51;;;;;;;1999.90;999.90;;;3.70;99.90;;;;;;5032167;28;20456;-67
2023/03/09 06:06:17;;;;;;;1999.90;999.90;;;3.70;99.90;;;;;;5031943;28;20403;-68
2023/03/09 06:08:43;;;;;;;1999.90;999.90;;;3.80;99.90;;;;;;5032267;28;20548;-68
2023/03/09 06:11:09;;;;;;;1999.90;999.90;;;3.90;99.90;;;;;;5031911;28;20457;-68
2023/03/09 06:13:35;;;;;;;1999.90;999.90;;;3.90;99.90;;;;;;5031820;28;20856;-67
2023/03/09 06:16:11;;;;;;;1999.90;999.90;;;3.70;99.90;;;;;;5031976;28;20492;-67
2023/03/09 06:18:37;;;;;;;1999.90;999.90;;;3.60;99.90;;;;;;5032055;28;20207;-68
2023/03/09 06:21:05;;;;;;;1999.90;999.90;;;3.60;99.90;;;;;;5032253;28;20192;-68
2023/03/09 06:23:31;;;;;;;1999.90;999.90;;;3.60;99.90;;;;;;5032143;28;20181;-67
2023/03/09 06:25:58;;;;;;;1999.90;999.90;;;3.70;99.90;;;;;;5032247;28;20486;-68
2023/03/09 06:28:24;;;;;;;1999.90;999.90;;;3.70;99.90;;;;;;5031926;28;20407;-68
2023/03/09 06:30:50;;;;;;;1999.90;999.90;;;3.80;99.90;;;;;;5031885;28;20434;-68
2023/03/09 06:33:15;;;;;;;1999.90;999.90;;;3.80;99.90;;;;;;5031467;28;20410;-67
2023/03/09 06:35:41;;;;;;;1999.90;999.90;;;3.80;99.90;;;;;;5031943;28;20445;-67
2023/03/09 06:38:07;;;;;;;1999.90;999.90;;;3.70;99.90;;;;;;5031666;28;20685;-67
2023/03/09 06:40:33;;;;;;;1999.90;999.90;;;3.60;99.90;;;;;;5031584;28;20422;-67
2023/03/09 06:42:58;;;;;;;1999.90;999.90;;;3.70;99.90;;;;;;5031401;28;20449;-67
2023/03/09 06:45:24;;;;;;;1999.90;999.90;;;3.70;99.90;;;;;;5031619;28;20214;-67
2023/03/09 06:47:55;;;;;;;1999.90;999.90;;;3.80;99.90;;;;;;5031527;28;20243;-67
2023/03/09 06:50:21;;;;;;;1999.90;999.90;;;3.80;99.90;;;;;;5031494;28;20438;-67
2023/03/09 06:52:47;;;;;;;1999.90;999.90;;;3.80;99.90;;;;;;5031508;28;20403;-67
2023/03/09 06:55:13;;;;;;;1999.90;999.90;;;3.90;99.90;;;;;;5031541;28;20411;-67
2023/03/09 06:57:38;;;;;;;1999.90;999.90;;;3.90;99.90;;;;;;5031243;28;20200;-67
2023/03/09 07:00:06;;;;;;;1999.90;999.90;;;4.10;99.90;;;;;;5031443;28;20176;-67
2023/03/09 07:02:31;;;;;;;1999.90;999.90;;;4.00;99.90;;;;;;5031181;28;20183;-67
2023/03/09 07:04:57;;;;;;;1999.90;999.90;;;3.90;99.90;;;;;;5031633;28;20889;-68
2023/03/09 07:07:23;;;;;;;1999.90;999.90;;;3.80;99.90;;;;;;5035005;28;20634;-68
2023/03/09 07:09:49;;;;;;;1999.90;999.90;;;3.80;99.90;;;;;;5034972;28;20414;-68
2023/03/09 07:12:15;;;;;;;1999.90;999.90;;;3.70;99.90;;;;;;5034704;28;20556;-68
2023/03/09 07:14:40;;;;;;;1999.90;999.90;;;3.60;99.90;;;;;;5035083;28;20247;-68
2023/03/09 07:17:10;;;;;;;1999.90;999.90;;;3.60;99.90;;;;;;5034786;28;20438;-67
2023/03/09 07:19:36;;;;;;;1999.90;999.90;;;3.60;99.90;;;;;;5035210;28;20164;-68
2023/03/09 07:22:02;;;;;;;1999.90;999.90;;;3.60;99.90;;;;;;5034878;28;20415;-67
2023/03/09 07:24:27;;;;;;;1999.90;999.90;;;3.70;99.90;;;;;;5034952;28;20785;-67
2023/03/09 07:26:53;;;;;;;1999.90;999.90;;;3.80;99.90;;;;;;5034840;28;20168;-68
2023/03/09 07:29:19;;;;;;;1999.90;999.90;;;3.90;99.90;;;;;;5034818;28;20175;-68
2023/03/09 07:31:45;;;;;;;1999.90;999.90;;;4.10;99.90;;;;;;5034311;28;20196;-68
2023/03/09 07:34:11;;;;;;;1999.90;999.90;;;4.30;99.90;;;;;;5034623;28;20418;-68
2023/03/09 07:36:36;;;;;;;1999.90;999.90;;;4.40;99.90;;;;;;5034413;28;20548;-68
2023/03/09 07:39:02;;;;;;;1999.90;999.90;;;4.40;99.90;;;;;;5035047;28;20257;-68
2023/03/09 07:41:27;;;;;;;1999.90;999.90;;;4.50;99.90;;;;;;5034348;28;20184;-68
2023/03/09 07:43:53;;;;;;;1999.90;999.90;;;4.60;99.90;;;;;;5034574;28;20172;-67
2023/03/09 07:46:19;;;;;;;1999.90;999.90;;;4.60;99.90;;;;;;5034296;28;20195;-68
2023/03/09 07:48:45;;;;;;;1999.90;999.90;;;4.80;99.90;;;;;;5034412;28;20184;-68
2023/03/09 07:51:12;;;;;;;1999.90;999.90;;;4.90;99.90;;;;;;5034225;28;20291;-67
2023/03/09 07:53:39;;;;;;;1999.90;999.90;;;5.00;99.90;;;;;;5034086;28;20414;-69
2023/03/09 07:56:07;;;;;;;1999.90;999.90;;;5.00;99.90;;;;;;5033868;28;20413;-68
2023/03/09 07:58:35;;;;;;;1999.90;999.90;;;5.00;99.90;;;;;;5034056;28;20529;-68
2023/03/09 08:01:01;;;;;;;1999.90;999.90;;;5.00;99.90;;;;;;5034073;28;20433;-68
2023/03/09 08:03:27;;;;;;;1999.90;999.90;;;5.10;99.90;;;;;;5033908;28;20403;-68
2023/03/09 08:05:55;;;;;;;1999.90;999.90;;;5.10;99.90;;;;;;5034099;28;20395;-68
2023/03/09 08:08:28;;;;;;;1999.90;999.90;;;5.10;99.90;;;;;;5033986;28;20403;-68
2023/03/09 08:10:54;;;;;;;1999.90;999.90;;;5.00;99.90;;;;;;5033723;28;20944;-68
2023/03/09 08:13:21;;;;;;;1999.90;999.90;;;4.90;99.90;;;;;;5033650;28;20466;-68
2023/03/09 08:15:48;;;;;;;1999.90;999.90;;;4.90;99.90;;;;;;5034021;28;20176;-68
2023/03/09 08:18:14;;;;;;;1999.90;999.90;;;4.80;99.90;;;;;;5032803;28;20454;-68
2023/03/09 08:20:39;;;;;;;1999.90;999.90;;;4.80;99.90;;;;;;5033695;28;20502;-68
2023/03/09 08:23:05;;;;;;;1999.90;999.90;;;4.70;99.90;;;;;;5033551;28;20516;-68
2023/03/09 08:25:31;;;;;;;1999.90;999.90;;;4.70;99.90;;;;;;5033717;28;20410;-67
2023/03/09 08:27:58;;;;;;;1999.90;999.90;;;4.70;99.90;;;;;;5033659;28;20787;-68
2023/03/09 08:30:24;;;;;;;1999.90;999.90;;;4.80;99.90;;;;;;5033603;28;20784;-68
2023/03/09 08:32:51;;;;;;;1999.90;999.90;;;4.90;99.90;;;;;;5033460;28;20414;-68
2023/03/09 08:35:19;;;;;;;1999.90;999.90;;;4.90;99.90;;;;;;5033743;28;20406;-68
2023/03/09 08:37:45;;;;;;;1999.90;999.90;;;4.90;99.90;;;;;;5033435;28;20502;-68
2023/03/09 08:40:11;;;;;;;1999.90;999.90;;;4.80;99.90;;;;;;5033353;28;20833;-67
2023/03/09 08:42:37;;;;;;;1999.90;999.90;;;4.90;99.90;;;;;;5033106;28;20402;-68
2023/03/09 08:45:04;;;;;;;1999.90;999.90;;;5.00;99.90;;;;;;5033535;28;20760;-68
2023/03/09 08:47:30;;;;;;;1999.90;999.90;;;5.00;99.90;;;;;;5033216;28;20788;-68
2023/03/09 08:49:56;;;;;;;1999.90;999.90;;;5.00;99.90;;;;;;5033398;28;20465;-67
2023/03/09 08:52:21;;;;;;;1999.90;999.90;;;5.00;99.90;;;;;;5033245;28;21132;-68
2023/03/09 08:54:49;;;;;;;1999.90;999.90;;;5.10;99.90;;;;;;5033033;28;20186;-68
2023/03/09 08:57:15;;;;;;;1999.90;999.90;;;5.10;99.90;;;;;;5015101;28;21023;-68
2023/03/09 08:59:41;;;;;;;1999.90;999.90;;;5.20;99.90;;;;;;5033106;28;20449;-68
2023/03/09 09:02:13;;;;;;;1999.90;999.90;;;5.20;99.90;;;;;;5032711;28;20828;-68
2023/03/09 09:04:45;;;;;;;1999.90;999.90;;;5.20;99.90;;;;;;5033018;28;20168;-68
2023/03/09 09:07:12;;;;;;;1999.90;999.90;;;5.10;99.90;;;;;;5032793;28;20453;-68
2023/03/09 09:09:39;;;;;;;1999.90;999.90;;;5.10;99.90;;;;;;5032675;28;20439;-68
2023/03/09 09:12:05;;;;;;;1999.90;999.90;;;5.10;99.90;;;;;;5032435;28;20442;-68
2023/03/09 09:14:32;;;;;;;1999.90;999.90;;;5.10;99.90;;;;;;5032826;28;20442;-68
2023/03/09 09:16:58;;;;;;;1999.90;999.90;;;5.20;99.90;;;;;;5026113;28;20459;-67
2023/03/09 09:19:24;;;;;;;1999.90;999.90;;;5.10;99.90;;;;;;5021220;28;20416;-67
2023/03/09 09:21:51;;;;;;;1999.90;999.90;;;5.20;99.90;;;;;;5021970;28;20439;-67
2023/03/09 09:24:17;;;;;;;1999.90;999.90;;;5.20;99.90;;;;;;5020496;28;20404;-67
2023/03/09 09:26:43;;;;;;;1999.90;999.90;;;5.40;99.90;;;;;;5021345;28;20414;-67
2023/03/09 09:29:08;;;;;;;1999.90;999.90;;;5.50;99.90;;;;;;5021962;28;20404;-68
2023/03/09 09:31:34;;;;;;;1999.90;999.90;;;5.60;99.90;;;;;;5017367;28;20195;-69
2023/03/09 09:34:00;;;;;;;1999.90;999.90;;;5.60;99.90;;;;;;5022179;28;20165;-68
2023/03/09 09:36:26;;;;;;;1999.90;999.90;;;5.70;99.90;;;;;;4987809;28;20259;-69
2023/03/09 09:38:53;;;;;;;1999.90;999.90;;;5.70;99.90;;;;;;4989289;28;20471;-68
2023/03/09 09:41:49;;;;;;;1999.90;999.90;;;5.70;99.90;;;;;;5021543;28;20270;-68
2023/03/09 09:44:30;;;;;;;1999.90;999.90;;;5.80;99.90;;;;;;5007453;28;20423;-68
2023/03/09 09:47:00;;;;;;;1999.90;999.90;;;5.90;99.90;;;;;;5012331;28;20406;-68
2023/03/09 09:49:30;;;;;;;1999.90;999.90;;;5.90;99.90;;;;;;5012711;28;20404;-68
2023/03/09 09:52:14;;;;;;;1999.90;999.90;;;6.00;99.90;;;;;;5012324;28;20486;-68
2023/03/09 09:54:47;;;;;;;1999.90;999.90;;;6.20;99.90;;;;;;5012251;28;20909;-67
2023/03/09 09:57:39;;;;;;;1999.90;999.90;;;6.30;99.90;;;;;;5008217;28;20451;-67
2023/03/09 10:00:28;;;;;;;1999.90;999.90;;;6.40;99.90;;;;;;5011976;28;20400;-68
2023/03/09 10:03:09;;;;;;;1999.90;999.90;;;6.40;99.90;;;;;;5011951;28;20389;-67
2023/03/09 10:05:58;;;;;;;1999.90;999.90;;;6.40;99.90;;;;;;5011377;28;20477;-68
2023/03/09 10:08:38;;;;;;;1999.90;999.90;;;6.50;99.90;;;;;;5011991;28;20406;-67
2023/03/09 10:11:41;;;;;;;1999.90;999.90;;;6.70;99.90;;;;;;5011522;28;20461;-67
2023/03/09 10:14:24;;;;;;;1999.90;999.90;;;6.90;99.90;;;;;;5011695;28;20749;-67
2023/03/09 10:17:15;;;;;;;1999.90;999.90;;;7.10;99.90;;;;;;4996764;28;20462;-67
2023/03/09 10:19:41;;;;;;;1999.90;999.90;;;7.30;99.90;;;;;;5014159;28;20475;-67
2023/03/09 10:22:12;;;;;;;1999.90;999.90;;;7.20;99.90;;;;;;5011386;28;20522;-67
2023/03/09 10:24:50;;;;;;;1999.90;999.90;;;7.30;99.90;;;;;;5011648;28;20404;-67
2023/03/09 10:27:33;;;;;;;1999.90;999.90;;;7.30;99.90;;;;;;5011074;28;20894;-67
2023/03/09 10:30:01;;;;;;;1999.90;999.90;;;6.90;99.90;;;;;;5011690;28;20407;-67
2023/03/09 10:32:40;;;;;;;1999.90;999.90;;;7.00;99.90;;;;;;5011446;28;20470;-67
2023/03/09 10:35:24;;;;;;;1999.90;999.90;;;7.10;99.90;;;;;;5011143;28;20403;-68
2023/03/09 10:37:51;;;;;;;1999.90;999.90;;;7.10;99.90;;;;;;5024536;28;20455;-68
2023/03/09 10:40:24;;;;;;;1999.90;999.90;;;7.00;99.90;;;;;;5032030;28;20431;-68
2023/03/09 10:42:49;;;;;;;1999.90;999.90;;;7.10;99.90;;;;;;5034665;28;20395;-68
2023/03/09 10:45:27;;;;;;;1999.90;999.90;;;7.10;99.90;;;;;;5035212;28;20433;-68
2023/03/09 10:47:54;;;;;;;1999.90;999.90;;;7.00;99.90;;;;;;5035229;28;20638;-68
2023/03/09 10:50:21;;;;;;;1999.90;999.90;;;7.10;99.90;;;;;;5034582;28;20438;-68
2023/03/09 10:52:48;;;;;;;1999.90;999.90;;;7.20;99.90;;;;;;5034809;28;20840;-68
2023/03/09 10:55:34;;;;;;;1999.90;999.90;;;7.20;99.90;;;;;;5035059;28;20411;-68
2023/03/09 10:58:17;;;;;;;1999.90;999.90;;;7.30;99.90;;;;;;5035240;28;20438;-68
2023/03/09 11:00:57;;;;;;;1999.90;999.90;;;7.40;99.90;;;;;;5034944;28;20419;-68
2023/03/09 11:03:41;;;;;;;1999.90;999.90;;;7.40;99.90;;;;;;5034346;28;20755;-68
2023/03/09 11:06:12;;;;;;;1999.90;999.90;;;7.50;99.90;;;;;;5034665;28;20407;-68
2023/03/09 11:08:40;;;;;;;1999.90;999.90;;;7.60;99.90;;;;;;5034941;28;20486;-69
2023/03/09 11:11:16;;;;;;;1999.90;999.90;;;7.70;99.90;;;;;;5034396;28;20451;-68
2023/03/09 11:13:46;;;;;;;1999.90;999.90;;;7.80;99.90;;;;;;5034658;28;20906;-68
2023/03/09 11:16:28;;;;;;;1999.90;999.90;;;7.90;99.90;;;;;;5034583;28;20408;-68
2023/03/09 11:19:14;;;;;;;1999.90;999.90;;;8.00;99.90;;;;;;5034110;28;20475;-69
2023/03/09 11:21:56;;;;;;;1999.90;999.90;;;8.10;99.90;;;;;;5034604;28;20461;-68
2023/03/09 11:24:36;;;;;;;1999.90;999.90;;;8.10;99.90;;;;;;5034678;28;20450;-68
2023/03/09 11:27:24;;;;;;;1999.90;999.90;;;8.10;99.90;;;;;;5034066;28;20410;-68
2023/03/09 11:30:04;;;;;;;1999.90;999.90;;;8.10;99.90;;;;;;5033817;28;20474;-69
2023/03/09 11:32:29;;;;;;;1999.90;999.90;;;8.20;99.90;;;;;;5033862;28;20415;-68
2023/03/09 11:34:55;;;;;;;1999.90;999.90;;;8.30;99.90;;;;;;5034449;28;20773;-68
2023/03/09 11:37:36;;;;;;;1999.90;999.90;;;8.30;99.90;;;;;;5034326;28;20199;-69
2023/03/09 11:40:22;;;;;;;1999.90;999.90;;;8.40;99.90;;;;;;5033908;28;20249;-68
2023/03/09 11:43:16;;;;;;;1999.90;999.90;;;8.40;99.90;;;;;;5034288;28;20771;-68
2023/03/09 11:45:42;;;;;;;1999.90;999.90;;;8.50;99.90;;;;;;5034161;28;20407;-68
2023/03/09 11:48:28;;;;;;;1999.90;999.90;;;8.50;99.90;;;;;;5033668;28;20411;-68
2023/03/09 11:51:02;;;;;;;1999.90;999.90;;;8.50;99.90;;;;;;5033963;28;20204;-68
2023/03/09 11:53:36;;;;;;;1999.90;999.90;;;8.50;99.90;;;;;;5032838;28;20579;-68
2023/03/09 11:56:08;;;;;;;1999.90;999.90;;;8.50;99.90;;;;;;5033330;28;20493;-68
2023/03/09 11:58:40;;;;;;;1999.90;999.90;;;8.50;99.90;;;;;;5033800;28;20446;-68
2023/03/09 12:02:01;;;;;;;1999.90;999.90;;;8.50;99.90;;;;;;5033806;28;20427;-68
2023/03/09 12:04:27;;;;;;;1999.90;999.90;;;8.50;99.90;;;;;;4972199;28;20543;-69
2023/03/09 12:07:06;;;;;;;1999.90;999.90;;;8.50;99.90;;;;;;5020952;28;20414;-68
2023/03/09 12:09:45;;;;;;;1999.90;999.90;;;8.60;99.90;;;;;;5033270;28;20405;-69
2023/03/09 12:12:25;;;;;;;1999.90;999.90;;;8.70;99.90;;;;;;5033416;28;20441;-68
2023/03/09 12:15:32;;;;;;;1999.90;999.90;;;8.70;99.90;;;;;;5033541;28;21080;-68
2023/03/09 12:18:01;;;;;;;1999.90;999.90;;;8.70;99.90;;;;;;5006108;28;20455;-68